Chefornak, Alaska
Current Conditions -  °F | °C
As of 11:56 AM on Friday 19 Dec 2014 (Local Time) from PAKI Reporting Station
Clear Clear  
Wind Chill: -8°   Ceiling: Unl
Heat Index:   Visibility: 10mi
Dew Point:   Wind: 15mph
Humidity: 83%   Direction: 10°N
Pressure: 29.1"   Gusts: NA
Location:  60.16°N, 164.27°W
Report Text: PAKI 192056Z AUTO 01013KT 10SM CLR M13/M15 A2910 RMK AO2 TSNO 53005 T11271150 SLP855 $
Loading
Personal Weather Stations






























Interactive Weather Map New forecast layout! Learn more

10-Day Weather Forecast

Advertisements
Track Severe Weather on mobile